createdAt,value
2022-10-17T00:00:16.931Z,100011.59
2022-10-17T00:02:43.500Z,100017.03
2022-10-17T00:05:11.860Z,100017.03
2022-10-17T00:07:39.094Z,100012.69
2022-10-17T00:10:07.373Z,100024.28
2022-10-17T00:12:35.205Z,100014.63
2022-10-17T00:15:04.744Z,100026.94
2022-10-17T00:17:31.391Z,100025.13
2022-10-17T00:20:01.702Z,100024.28
2022-10-17T00:22:28.554Z,100024.03
2022-10-17T00:24:55.151Z,100017.75
2022-10-17T00:27:21.798Z,100022.09
2022-10-17T00:29:52.466Z,100011.47
2022-10-17T00:32:19.650Z,100005.91
2022-10-17T00:34:46.809Z,100009.31
2022-10-17T00:37:13.413Z,99999.41
2022-10-17T00:39:39.944Z,100010.78
2022-10-17T00:42:06.654Z,100000.84
2022-10-17T00:44:33.138Z,100005.94
2022-10-17T00:47:03.882Z,100007.59
2022-10-17T00:49:34.467Z,100013.63
2022-10-17T00:52:06.131Z,100027.56
2022-10-17T00:54:35.518Z,100022.13
2022-10-17T00:57:02.445Z,100022.81
2022-10-17T00:59:32.387Z,100024.38
2022-10-17T01:02:04.937Z,100020.03
2022-10-17T01:04:32.056Z,100021.50
2022-10-17T01:06:58.792Z,100008.06
2022-10-17T01:09:27.339Z,100009.75
2022-10-17T01:12:06.427Z,99994.75
2022-10-17T01:14:52.264Z,99996.44
2022-10-17T01:17:24.838Z,99997.03
2022-10-17T01:20:12.921Z,99986.25
2022-10-17T01:23:06.842Z,99981.91
2022-10-17T01:25:57.708Z,99976.59
2022-10-17T01:28:48.740Z,99977.31
2022-10-17T01:31:20.051Z,99978.03
2022-10-17T01:34:27.836Z,99979.13
2022-10-17T01:37:04.461Z,99972.72
2022-10-17T01:39:41.641Z,99974.53
2022-10-17T01:42:24.363Z,99970.06
2022-10-17T01:45:25.614Z,99962.94
2022-10-17T01:47:54.581Z,99963.38
2022-10-17T01:50:28.281Z,99960.84
2022-10-17T01:53:19.815Z,99960.13
2022-10-17T01:55:49.846Z,99961.44
2022-10-17T01:58:23.226Z,99953.31
2022-10-17T02:00:51.642Z,99955.00
2022-10-17T02:03:21.198Z,99952.34
2022-10-17T02:05:48.301Z,99949.56
2022-10-17T02:08:25.612Z,99947.03
2022-10-17T02:11:09.977Z,99948.72
2022-10-17T02:14:01.165Z,99951.13
2022-10-17T02:16:50.597Z,99950.13
2022-10-17T02:19:22.866Z,99954.38
2022-10-17T02:22:20.918Z,99953.41
2022-10-17T02:24:52.651Z,99947.97
2022-10-17T02:27:40.104Z,99944.56
2022-10-17T02:30:23.595Z,99941.78
2022-10-17T02:32:55.870Z,99941.53
2022-10-17T02:35:25.407Z,99944.06
2022-10-17T02:37:53.493Z,99938.59
2022-10-17T02:40:22.942Z,99930.59
2022-10-17T02:42:51.428Z,99930.47
2022-10-17T02:45:19.443Z,99929.53
2022-10-17T02:47:59.747Z,99933.13
2022-10-17T02:51:01.692Z,99932.31
2022-10-17T02:53:55.668Z,99932.19
2022-10-17T02:56:24.853Z,99929.97
2022-10-17T02:58:57.695Z,99936.28
2022-10-17T03:01:25.045Z,99928.13
2022-10-17T03:03:51.718Z,99934.44
2022-10-17T03:06:18.284Z,99938.78
2022-10-17T03:08:44.870Z,99938.78
2022-10-17T03:11:11.442Z,99933.47
2022-10-17T03:13:39.860Z,99944.09
2022-10-17T03:16:06.837Z,99943.28
2022-10-17T03:18:33.415Z,99941.44
2022-10-17T03:20:59.970Z,99944.97
2022-10-17T03:23:26.532Z,99943.28
2022-10-17T03:25:53.053Z,99940.50
2022-10-17T03:28:19.586Z,99941.31
2022-10-17T03:30:46.198Z,99934.19
2022-10-17T03:33:12.735Z,99934.06
2022-10-17T03:35:42.880Z,99932.09
2022-10-17T03:38:09.522Z,99930.16
2022-10-17T03:40:36.101Z,99925.66
2022-10-17T03:43:02.622Z,99934.50
2022-10-17T03:45:29.226Z,99932.72
2022-10-17T03:47:55.743Z,99934.25
2022-10-17T03:50:22.292Z,99931.59
2022-10-17T03:52:49.393Z,99946.59
2022-10-17T03:55:16.924Z,99948.28
2022-10-17T03:57:45.479Z,99947.28
2022-10-17T04:00:12.915Z,99949.00
2022-10-17T04:02:39.444Z,99941.72
2022-10-17T04:05:06.632Z,99949.56
2022-10-17T04:07:33.162Z,99942.28
2022-10-17T04:09:59.743Z,99947.78
2022-10-17T04:12:26.406Z,99953.78
2022-10-17T04:14:53.257Z,99956.47
2022-10-17T04:17:19.772Z,99955.47
2022-10-17T04:19:46.407Z,99957.16
2022-10-17T04:22:13.373Z,99958.88
2022-10-17T04:24:39.918Z,99965.88
2022-10-17T04:27:06.820Z,99961.41
2022-10-17T04:29:33.530Z,99960.44
2022-10-17T04:32:00.310Z,99962.97
2022-10-17T04:34:26.936Z,99963.66
2022-10-17T04:36:53.483Z,99954.84
2022-10-17T04:39:20.155Z,99962.69
2022-10-17T04:41:46.727Z,99952.88
2022-10-17T04:44:13.340Z,99952.78
2022-10-17T04:46:40.025Z,99956.16
2022-10-17T04:49:06.637Z,99955.19
2022-10-17T04:51:33.171Z,99957.84
2022-10-17T04:53:59.799Z,99956.00
2022-10-17T04:56:26.385Z,99955.88
2022-10-17T04:58:53.001Z,99960.22
2022-10-17T05:01:23.769Z,99961.22
2022-10-17T05:03:50.358Z,99955.63
2022-10-17T05:06:19.780Z,99961.78
2022-10-17T05:08:46.857Z,99963.34
2022-10-17T05:11:23.093Z,99959.84
2022-10-17T05:14:00.346Z,99956.78
2022-10-17T05:16:28.142Z,99945.16
2022-10-17T05:18:56.697Z,99951.19
2022-10-17T05:21:25.471Z,99950.19
2022-10-17T05:23:52.650Z,99947.41
2022-10-17T05:26:19.676Z,99941.94
2022-10-17T05:28:46.433Z,99948.00
2022-10-17T05:31:13.829Z,99944.34
2022-10-17T05:33:40.507Z,99944.34
2022-10-17T05:36:08.200Z,99950.66
2022-10-17T05:38:35.131Z,99947.84
2022-10-17T05:41:04.500Z,99959.38
2022-10-17T05:43:32.062Z,99960.09
2022-10-17T05:45:58.765Z,99952.09
2022-10-17T05:48:25.458Z,99952.91
2022-10-17T05:50:59.387Z,99967.09
2022-10-17T05:53:26.054Z,99973.13
2022-10-17T05:56:00.439Z,99970.59
2022-10-17T06:01:14.699Z,99977.09
2022-10-17T06:03:41.267Z,99981.56
2022-10-17T06:06:10.455Z,99983.41
2022-10-17T06:08:37.436Z,99977.94
2022-10-17T06:11:07.496Z,99992.94
2022-10-17T06:13:36.652Z,99986.63
2022-10-17T06:16:03.242Z,99988.31
2022-10-17T06:18:29.959Z,99989.28
2022-10-17T06:21:05.911Z,100007.25
2022-10-17T06:23:32.914Z,99999.97
2022-10-17T06:26:01.142Z,100011.34
2022-10-17T06:28:28.037Z,100005.03
2022-10-17T06:30:55.181Z,100016.38
2022-10-17T06:33:23.301Z,100007.44
2022-10-17T06:35:56.481Z,100014.44
2022-10-17T06:38:23.463Z,100011.38
2022-10-17T06:40:50.140Z,100015.63
2022-10-17T06:43:16.799Z,100011.97
2022-10-17T06:45:45.718Z,100013.50
2022-10-17T06:48:12.291Z,100036.41
2022-10-17T06:50:38.927Z,100042.44
2022-10-17T06:53:05.482Z,100046.81
2022-10-17T06:55:32.660Z,100049.19
2022-10-17T06:57:59.211Z,100049.91
2022-10-17T07:00:26.915Z,100052.44
2022-10-17T07:02:53.492Z,100060.16
2022-10-17T07:05:20.128Z,100059.22
2022-10-17T07:07:48.537Z,100067.91
2022-10-17T07:10:18.383Z,100067.78
2022-10-17T07:12:45.905Z,100067.63
2022-10-17T07:15:12.678Z,100069.19
2022-10-17T07:17:39.557Z,100069.88
2022-10-17T07:20:06.694Z,100067.94
2022-10-17T07:22:33.312Z,100060.63
2022-10-17T07:24:59.872Z,100062.19
2022-10-17T07:27:26.585Z,100062.91
2022-10-17T07:29:53.295Z,100066.19
2022-10-17T07:32:19.881Z,100067.88
2022-10-17T07:34:46.413Z,100066.91
2022-10-17T07:37:13.493Z,100068.47
2022-10-17T07:39:40.116Z,100071.00
2022-10-17T07:42:07.786Z,100072.53
2022-10-17T07:44:35.589Z,100070.44
2022-10-17T07:47:02.489Z,100075.63
2022-10-17T07:49:29.346Z,100074.53
2022-10-17T07:51:56.002Z,100070.72
2022-10-17T07:54:22.747Z,100080.28
2022-10-17T07:56:50.795Z,100077.34
2022-10-17T07:59:20.545Z,100074.56
2022-10-17T08:01:47.133Z,100082.13
2022-10-17T08:04:13.780Z,100087.22
2022-10-17T08:06:40.365Z,100085.09
2022-10-17T08:09:07.002Z,100084.00
2022-10-17T08:11:33.698Z,100075.69
2022-10-17T08:14:00.276Z,100075.44
2022-10-17T08:16:26.875Z,100083.16
2022-10-17T08:18:53.909Z,100074.03
2022-10-17T08:21:20.582Z,100070.09
2022-10-17T08:23:47.119Z,100074.31
2022-10-17T08:26:17.304Z,100069.53
2022-10-17T08:28:44.379Z,100072.06
2022-10-17T08:31:13.680Z,100078.13
2022-10-17T08:33:41.520Z,100073.47
2022-10-17T08:36:09.051Z,100078.56
2022-10-17T08:38:38.339Z,100068.56
2022-10-17T08:41:45.738Z,100071.38
2022-10-17T08:44:33.439Z,100070.09
2022-10-17T08:47:04.400Z,100067.72
2022-10-17T08:49:47.021Z,100067.72
2022-10-17T08:52:35.247Z,100066.59
2022-10-17T08:55:01.965Z,100067.63
2022-10-17T08:57:29.335Z,100072.69
2022-10-17T08:59:57.014Z,100071.25
2022-10-17T09:02:54.476Z,100077.44
2022-10-17T09:05:30.547Z,100073.91
2022-10-17T09:08:06.355Z,100082.06
2022-10-17T09:10:47.420Z,100093.16
2022-10-17T09:13:25.486Z,100098.66
2022-10-17T09:15:58.019Z,100107.06
2022-10-17T09:18:31.869Z,100107.66
2022-10-17T09:21:19.681Z,100109.31
2022-10-17T09:24:03.969Z,100102.56
2022-10-17T09:26:39.233Z,100104.66
2022-10-17T09:29:17.708Z,100112.53
2022-10-17T09:31:51.243Z,100104.75
2022-10-17T09:34:18.040Z,100115.59
2022-10-17T09:36:44.637Z,100112.22
2022-10-17T09:39:18.825Z,100117.81
2022-10-17T09:41:57.037Z,100114.44
2022-10-17T09:44:31.267Z,100115.50
2022-10-17T09:47:26.438Z,100109.72
2022-10-17T09:49:53.038Z,100116.84
2022-10-17T09:52:27.518Z,100134.59
2022-10-17T09:54:59.282Z,100152.91
2022-10-17T09:57:26.434Z,100147.25
2022-10-17T10:00:01.887Z,100157.41
2022-10-17T10:02:31.437Z,100166.16
2022-10-17T10:05:16.306Z,100168.44
2022-10-17T10:07:45.749Z,100165.91
2022-10-17T10:10:28.125Z,100183.66
2022-10-17T10:13:18.178Z,100182.28
2022-10-17T10:15:47.784Z,100178.31
2022-10-17T10:18:26.685Z,100178.59
2022-10-17T10:21:16.330Z,100181.00
2022-10-17T10:23:45.328Z,100177.28
2022-10-17T10:26:21.584Z,100183.22
2022-10-17T10:28:56.254Z,100185.28
2022-10-17T10:31:40.918Z,100193.84
2022-10-17T10:34:19.388Z,100201.31
2022-10-17T10:36:55.221Z,100201.56
2022-10-17T10:39:43.786Z,100205.06
2022-10-17T10:42:30.073Z,100207.47
2022-10-17T10:45:48.001Z,100209.13
2022-10-17T10:48:21.378Z,100211.09
2022-10-17T10:50:47.831Z,100211.09
2022-10-17T10:53:36.228Z,100209.84
2022-10-17T10:56:21.632Z,100222.38
2022-10-17T10:59:03.430Z,100228.47
2022-10-17T11:01:41.487Z,100249.31
2022-10-17T11:04:45.836Z,100251.47
2022-10-17T11:07:30.630Z,100262.31
2022-10-17T11:10:00.318Z,100273.03
2022-10-17T11:13:00.614Z,100269.41
2022-10-17T11:15:52.628Z,100268.16
2022-10-17T11:18:27.765Z,100256.59
2022-10-17T11:21:00.270Z,100267.44
2022-10-17T11:23:42.726Z,100273.53
2022-10-17T11:26:26.055Z,100276.34
2022-10-17T11:28:54.478Z,100273.81
2022-10-17T11:31:24.048Z,100263.41
2022-10-17T11:34:15.006Z,100274.69
2022-10-17T11:36:44.707Z,100269.06
2022-10-17T11:39:14.048Z,100256.34
2022-10-17T11:41:54.172Z,100242.28
2022-10-17T11:44:36.229Z,100267.06
2022-10-17T11:47:24.200Z,100271.59
2022-10-17T11:53:13.293Z,100263.09
2022-10-17T11:55:41.101Z,100259.00
2022-10-17T11:58:26.783Z,100278.28
2022-10-17T12:00:53.309Z,100277.00
2022-10-17T12:03:19.819Z,100260.53
2022-10-17T12:05:58.177Z,100262.78
2022-10-17T12:08:30.614Z,100262.19
2022-10-17T12:11:20.987Z,100276.25
2022-10-17T12:13:49.998Z,100294.28
2022-10-17T12:16:19.813Z,100299.50
2022-10-17T12:19:10.620Z,100304.00
2022-10-17T12:21:57.258Z,100307.97
2022-10-17T12:24:35.835Z,100311.78
2022-10-17T12:27:22.141Z,100309.53
2022-10-17T12:29:49.192Z,100298.00
2022-10-17T12:32:15.892Z,100293.06
2022-10-17T12:34:54.050Z,100286.91
2022-10-17T12:37:45.368Z,100298.03
2022-10-17T12:40:36.867Z,100284.25
2022-10-17T12:43:15.847Z,100281.03
2022-10-17T12:45:56.279Z,100283.84
2022-10-17T12:48:38.330Z,100287.50
2022-10-17T12:51:34.693Z,100279.03
2022-10-17T12:53:59.512Z,100281.97
2022-10-17T12:56:32.062Z,100272.25
2022-10-17T12:58:59.260Z,100273.78
2022-10-17T13:01:31.016Z,100277.59
2022-10-17T13:04:02.687Z,100267.75
2022-10-17T13:06:31.518Z,100276.91
2022-10-17T13:09:05.630Z,100280.16
2022-10-17T13:11:34.969Z,100286.50
2022-10-17T13:14:09.220Z,100295.81
2022-10-17T13:16:38.996Z,100299.78
2022-10-17T13:19:17.624Z,100313.88
2022-10-17T13:22:06.432Z,100318.66
2022-10-17T13:24:39.388Z,100322.31
2022-10-17T13:27:21.303Z,100318.97
2022-10-17T13:29:47.875Z,100324.44
2022-10-17T13:32:14.391Z,100332.75
2022-10-17T13:34:40.995Z,100338.38
2022-10-17T13:37:13.753Z,100351.19
2022-10-17T13:40:00.256Z,100354.13
2022-10-17T13:42:40.588Z,100346.09
2022-10-17T13:45:19.483Z,100355.38
2022-10-17T13:47:46.274Z,100349.75
2022-10-17T13:50:43.186Z,100353.69
2022-10-17T13:53:18.599Z,100365.38
2022-10-17T13:56:22.915Z,100365.53
2022-10-17T13:58:49.449Z,100366.38
2022-10-17T14:01:17.596Z,100356.78
2022-10-17T14:03:48.646Z,100372.81
2022-10-17T14:06:15.642Z,100366.91
2022-10-17T14:08:54.181Z,100370.03
2022-10-17T14:11:30.935Z,100371.84
2022-10-17T14:13:59.008Z,100371.00
2022-10-17T14:16:27.712Z,100366.75
2022-10-17T14:18:55.620Z,100373.09
2022-10-17T14:21:42.970Z,100374.38
2022-10-17T14:24:37.068Z,100375.75
2022-10-17T14:27:03.668Z,100372.69
2022-10-17T14:29:32.910Z,100372.94
2022-10-17T14:32:10.503Z,100375.06
2022-10-17T14:34:40.692Z,100364.38
2022-10-17T14:37:22.476Z,100367.31
2022-10-17T14:39:51.088Z,100375.19
2022-10-17T14:42:20.606Z,100382.50
2022-10-17T14:44:50.814Z,100382.66
2022-10-17T14:47:42.156Z,100379.13
2022-10-17T14:50:20.341Z,100384.47
2022-10-17T14:53:06.775Z,100395.72
2022-10-17T14:55:35.986Z,100391.75
2022-10-17T14:58:16.620Z,100402.03
2022-10-17T15:00:43.176Z,100405.31
2022-10-17T15:03:09.710Z,100400.91
2022-10-17T15:05:36.333Z,100393.75
2022-10-17T15:08:02.886Z,100410.66
2022-10-17T15:10:35.808Z,100409.09
2022-10-17T15:13:27.044Z,100408.94
2022-10-17T15:15:52.249Z,100415.00
2022-10-17T15:18:19.523Z,100415.84
2022-10-17T15:20:46.122Z,100416.81
2022-10-17T15:23:12.722Z,100419.50
2022-10-17T15:25:39.829Z,100417.81
2022-10-17T15:28:06.359Z,100421.34
2022-10-17T15:30:36.420Z,100426.94
2022-10-17T15:33:03.103Z,100429.50
2022-10-17T15:35:30.397Z,100440.19
2022-10-17T15:37:57.012Z,100446.53
2022-10-17T15:40:29.259Z,100451.16
2022-10-17T15:42:56.467Z,100455.38
2022-10-17T15:45:23.709Z,100459.03
2022-10-17T15:47:57.024Z,100460.28
2022-10-17T15:50:23.582Z,100462.97
2022-10-17T15:52:53.183Z,100468.44
2022-10-17T15:55:19.996Z,100474.63
2022-10-17T15:57:47.944Z,100471.38
2022-10-17T16:00:23.825Z,100475.28
2022-10-17T16:02:51.028Z,100483.19
2022-10-17T16:05:25.761Z,100475.44
2022-10-17T16:07:56.849Z,100489.91
2022-10-17T16:10:26.598Z,100487.38
2022-10-17T16:12:53.942Z,100489.31
2022-10-17T16:15:24.029Z,100490.44
2022-10-17T16:17:56.800Z,100496.03
2022-10-17T16:20:25.675Z,100501.38
2022-10-17T16:22:56.322Z,100505.03
2022-10-17T16:25:27.026Z,100514.31
2022-10-17T16:27:57.538Z,100512.59
2022-10-17T16:30:27.158Z,100511.88
2022-10-17T16:32:55.179Z,100509.22
2022-10-17T16:35:25.356Z,100497.09
2022-10-17T16:37:52.241Z,100490.03
2022-10-17T16:40:19.544Z,100495.66
2022-10-17T16:42:46.658Z,100487.03
2022-10-17T16:45:22.313Z,100490.09
2022-10-17T16:47:50.830Z,100496.41
2022-10-17T16:50:18.056Z,100499.22
2022-10-17T16:52:44.891Z,100500.31
2022-10-17T16:55:12.092Z,100512.97
2022-10-17T16:57:39.173Z,100514.06
2022-10-17T17:00:07.738Z,100528.53
2022-10-17T17:02:35.000Z,100542.00
2022-10-17T17:05:01.685Z,100548.34
2022-10-17T17:07:29.902Z,100544.94
2022-10-17T17:09:56.919Z,100547.72
2022-10-17T17:12:23.763Z,100549.69
2022-10-17T17:14:50.335Z,100565.72
2022-10-17T17:17:30.137Z,100562.19
2022-10-17T17:20:04.045Z,100565.84
2022-10-17T17:22:30.608Z,100571.31
2022-10-17T17:24:57.220Z,100569.63
2022-10-17T17:27:25.192Z,100574.09
2022-10-17T17:29:51.782Z,100577.75
2022-10-17T17:32:18.294Z,100576.88
2022-10-17T17:34:44.843Z,100581.41
2022-10-17T17:37:11.543Z,100578.84
2022-10-17T17:39:38.330Z,100585.88
2022-10-17T17:42:04.971Z,100584.19
2022-10-17T17:44:32.028Z,100582.38
2022-10-17T17:46:58.746Z,100577.16
2022-10-17T17:49:25.286Z,100580.78
2022-10-17T17:51:51.868Z,100590.63
2022-10-17T17:54:18.444Z,100592.56
2022-10-17T17:56:45.004Z,100591.84
2022-10-17T17:59:13.070Z,100595.63
2022-10-17T18:01:39.829Z,100589.44
2022-10-17T18:04:08.813Z,100593.31
2022-10-17T18:06:37.424Z,100590.78
2022-10-17T18:09:05.755Z,100587.41
2022-10-17T18:11:32.915Z,100592.84
2022-10-17T18:14:02.293Z,100591.28
2022-10-17T18:16:31.221Z,100606.56
2022-10-17T18:19:03.985Z,100607.66
2022-10-17T18:21:33.452Z,100605.13
2022-10-17T18:24:00.309Z,100601.03
2022-10-17T18:26:27.849Z,100598.47
2022-10-17T18:28:54.409Z,100602.25
2022-10-17T18:31:24.372Z,100607.69
2022-10-17T18:33:53.018Z,100610.59
2022-10-17T18:36:21.188Z,100601.72
2022-10-17T18:38:48.449Z,100594.69
2022-10-17T18:41:17.216Z,100602.00
2022-10-17T18:43:45.778Z,100603.94
2022-10-17T18:46:16.260Z,100615.56
2022-10-17T18:48:44.630Z,100609.53
2022-10-17T18:51:12.290Z,100611.47
2022-10-17T18:53:45.696Z,100609.84
2022-10-17T18:56:13.197Z,100615.19
2022-10-17T18:58:40.948Z,100610.94
2022-10-17T19:01:12.161Z,100613.84
2022-10-17T19:03:38.692Z,100624.53
2022-10-17T19:06:07.524Z,100622.81
2022-10-17T19:08:35.664Z,100630.84
2022-10-17T19:11:10.169Z,100627.56
2022-10-17T19:13:36.877Z,100635.41
2022-10-17T19:16:08.221Z,100631.19
2022-10-17T19:18:35.943Z,100631.91
2022-10-17T19:21:09.284Z,100636.50
2022-10-17T19:23:36.779Z,100641.75
2022-10-17T19:26:11.417Z,100646.34
2022-10-17T19:28:39.728Z,100648.03
2022-10-17T19:31:06.835Z,100637.38
2022-10-17T19:33:34.442Z,100637.38
2022-10-17T19:36:04.279Z,100636.50
2022-10-17T19:38:31.230Z,100636.50
2022-10-17T19:40:57.808Z,100636.50
2022-10-17T19:43:24.367Z,100641.03
2022-10-17T19:45:59.637Z,100638.59
2022-10-17T19:48:27.263Z,100638.47
2022-10-17T19:50:54.714Z,100644.63
2022-10-17T19:53:23.985Z,100645.72
2022-10-17T19:55:51.343Z,100650.13
2022-10-17T19:58:17.838Z,100654.59
2022-10-17T20:00:52.508Z,100662.00
2022-10-17T20:03:19.770Z,100667.94
2022-10-17T20:05:47.147Z,100672.53
2022-10-17T20:08:14.910Z,100674.34
2022-10-17T20:10:42.169Z,100680.66
2022-10-17T20:13:09.039Z,100686.13
2022-10-17T20:15:36.254Z,100688.91
2022-10-17T20:18:04.065Z,100687.19
2022-10-17T20:20:30.698Z,100689.00
2022-10-17T20:22:57.412Z,100693.63
2022-10-17T20:25:24.429Z,100698.97
2022-10-17T20:27:51.009Z,100704.28
2022-10-17T20:30:17.614Z,100704.28
2022-10-17T20:32:44.147Z,100700.88
2022-10-17T20:35:10.940Z,100706.22
2022-10-17T20:37:41.584Z,100714.31
2022-10-17T20:40:34.162Z,100725.84
2022-10-17T20:42:56.450Z,100723.19
2022-10-17T20:45:37.455Z,100716.06
2022-10-17T20:48:15.577Z,100730.44
2022-10-17T20:50:43.346Z,100735.66
2022-10-17T20:53:35.621Z,100737.50
2022-10-17T20:56:08.784Z,100735.06
2022-10-17T20:58:36.014Z,100745.63
2022-10-17T21:01:10.519Z,100747.63
2022-10-17T21:03:41.159Z,100747.53
2022-10-17T21:06:11.425Z,100755.53
2022-10-17T21:08:38.189Z,100760.03
2022-10-17T21:11:13.279Z,100757.59
2022-10-17T21:13:40.240Z,100752.97
2022-10-17T21:16:12.047Z,100758.31
2022-10-17T21:18:39.304Z,100752.16
2022-10-17T21:21:24.864Z,100761.34
2022-10-17T21:23:52.880Z,100765.59
2022-10-17T21:26:20.767Z,100763.91
2022-10-17T21:28:48.749Z,100771.91
2022-10-17T21:31:24.206Z,100757.09
2022-10-17T21:33:53.528Z,100751.66
2022-10-17T21:36:20.857Z,100751.53
2022-10-17T21:38:49.004Z,100750.66
2022-10-17T21:41:19.462Z,100751.66
2022-10-17T21:43:46.532Z,100747.16
2022-10-17T21:46:16.158Z,100748.97
2022-10-17T21:48:43.864Z,100746.31
2022-10-17T21:51:13.672Z,100748.13
2022-10-17T21:53:40.910Z,100745.44
2022-10-17T21:56:12.470Z,100750.91
2022-10-17T21:58:39.422Z,100763.25
2022-10-17T22:01:13.669Z,100751.97
2022-10-17T22:03:45.854Z,100749.19
2022-10-17T22:06:38.808Z,100748.34
2022-10-17T22:09:04.605Z,100748.34
2022-10-17T22:11:33.943Z,100752.84
2022-10-17T22:14:15.295Z,100755.84
2022-10-17T22:16:44.350Z,100749.31
2022-10-17T22:19:12.709Z,100762.63
2022-10-17T22:21:40.040Z,100760.94
2022-10-17T22:24:10.979Z,100772.59
2022-10-17T22:26:38.827Z,100773.41
2022-10-17T22:29:07.126Z,100773.53
2022-10-17T22:31:34.486Z,100767.38
2022-10-17T22:34:01.076Z,100768.31
2022-10-17T22:36:27.753Z,100778.97
2022-10-17T22:38:54.518Z,100780.81
2022-10-17T22:41:21.167Z,100779.13
2022-10-17T22:43:47.705Z,100781.78
2022-10-17T22:46:17.125Z,100780.91
2022-10-17T22:48:43.922Z,100784.44
2022-10-17T22:51:11.096Z,100784.44
2022-10-17T22:53:38.089Z,100790.59
2022-10-17T22:56:14.346Z,100791.69
2022-10-17T22:58:41.167Z,100789.78
2022-10-17T23:01:10.481Z,100796.81
2022-10-17T23:03:37.077Z,100786.97
2022-10-17T23:06:04.351Z,100786.97
2022-10-17T23:08:31.099Z,100793.16
2022-10-17T23:10:58.141Z,100784.19
2022-10-17T23:13:24.765Z,100789.53
2022-10-17T23:15:53.182Z,100784.19
2022-10-17T23:18:20.858Z,100785.91
2022-10-17T23:20:47.985Z,100784.94
2022-10-17T23:23:15.365Z,100781.41
2022-10-17T23:25:42.425Z,100782.28
2022-10-17T23:28:09.325Z,100782.28
2022-10-17T23:30:37.401Z,100770.75
2022-10-17T23:33:04.590Z,100778.75
2022-10-17T23:35:31.681Z,100773.41
2022-10-17T23:37:58.348Z,100767.25
2022-10-17T23:40:25.077Z,100770.88
2022-10-17T23:42:51.610Z,100773.53
2022-10-17T23:45:19.343Z,100778.97
2022-10-17T23:47:46.077Z,100778.13
2022-10-17T23:50:14.084Z,100781.63
2022-10-17T23:52:40.753Z,100778.25
2022-10-17T23:55:08.489Z,100780.91
2022-10-17T23:57:35.403Z,100780.19
